Time;durP1;ratioP1;P1;durP2;ratioP2;P2;SDS_P1;SDS_P2;PMS_P1;PMS_P2;Temp;Humidity;BMP_temperature;BMP_pressure;BME280_temperature;BME280_humidity;BME280_pressure;Samples;Min_cycle;Max_cycle;Signal;HPM_P1;HPM_P2
2023/07/13 00:02:03;;;;;;;8.20;1.63;;;16.50;99.90;;;;;;5035952;28;20041;-76
2023/07/13 00:04:32;;;;;;;6.55;1.80;;;16.50;99.90;;;;;;5036323;28;20080;-76
2023/07/13 00:06:57;;;;;;;8.13;1.50;;;16.50;99.90;;;;;;5052735;28;20116;-76
2023/07/13 00:09:23;;;;;;;5.03;1.30;;;16.40;99.90;;;;;;5053254;28;20148;-76
2023/07/13 00:11:54;;;;;;;4.60;1.30;;;16.40;99.90;;;;;;5036292;28;20088;-76
2023/07/13 00:14:21;;;;;;;5.53;1.40;;;16.30;99.90;;;;;;5037518;28;20106;-76
2023/07/13 00:16:47;;;;;;;7.53;1.55;;;16.40;99.90;;;;;;5053787;28;20076;-76
2023/07/13 00:19:13;;;;;;;6.70;1.30;;;16.40;99.90;;;;;;5037208;28;20063;-76
2023/07/13 00:21:42;;;;;;;5.75;1.30;;;16.40;99.90;;;;;;5053483;28;20100;-76
2023/07/13 00:24:12;;;;;;;3.95;1.20;;;16.40;99.90;;;;;;5035955;28;20385;-76
2023/07/13 00:26:38;;;;;;;6.18;1.23;;;16.40;99.90;;;;;;5055581;28;20082;-76
2023/07/13 00:29:08;;;;;;;5.95;1.38;;;16.30;99.90;;;;;;5041008;28;20048;-76
2023/07/13 00:31:35;;;;;;;8.00;1.50;;;16.30;99.90;;;;;;5039188;28;20063;-76
2023/07/13 00:34:05;;;;;;;6.20;1.38;;;16.30;99.90;;;;;;5039388;28;20084;-76
2023/07/13 00:36:31;;;;;;;4.72;1.10;;;16.30;99.90;;;;;;5073809;28;20080;-76
2023/07/13 00:38:57;;;;;;;5.65;1.20;;;16.20;99.90;;;;;;5042331;28;20041;-76
2023/07/13 00:41:23;;;;;;;6.57;1.23;;;16.20;99.90;;;;;;5050616;28;20145;-76
2023/07/13 00:43:49;;;;;;;5.28;1.25;;;16.10;99.90;;;;;;5022763;28;20061;-76
2023/07/13 00:46:28;;;;;;;3.80;1.02;;;16.10;99.90;;;;;;5041180;28;20049;-76
2023/07/13 00:48:56;;;;;;;3.28;1.10;;;16.10;99.90;;;;;;5040669;28;20048;-76
2023/07/13 00:51:27;;;;;;;5.25;1.02;;;16.00;99.90;;;;;;5040493;28;20057;-76
2023/07/13 00:53:56;;;;;;;3.72;1.20;;;15.90;99.90;;;;;;5040155;28;20029;-75
2023/07/13 00:56:22;;;;;;;2.03;0.95;;;16.00;99.90;;;;;;5058281;28;20481;-76
2023/07/13 00:58:52;;;;;;;4.85;1.10;;;15.90;99.90;;;;;;5056828;28;20112;-76
2023/07/13 01:01:18;;;;;;;6.05;1.00;;;15.90;99.90;;;;;;5039842;28;20107;-76
2023/07/13 01:03:44;;;;;;;3.80;0.82;;;15.90;99.90;;;;;;5039358;28;20067;-76
2023/07/13 01:06:11;;;;;;;3.45;0.90;;;16.00;99.90;;;;;;5072364;28;20041;-76
2023/07/13 01:08:36;;;;;;;3.22;0.88;;;16.00;99.90;;;;;;5040159;28;20416;-76
2023/07/13 01:11:04;;;;;;;4.72;1.10;;;16.10;99.90;;;;;;5034988;28;20042;-76
2023/07/13 01:13:31;;;;;;;3.88;1.27;;;16.10;99.90;;;;;;5035220;28;20049;-76
2023/07/13 01:16:01;;;;;;;3.80;1.15;;;16.10;99.90;;;;;;5030941;28;20049;-75
2023/07/13 01:18:28;;;;;;;4.97;1.33;;;16.00;99.90;;;;;;5012185;28;20069;-76
2023/07/13 01:21:04;;;;;;;2.50;1.00;;;16.00;99.90;;;;;;5017733;28;20052;-76
2023/07/13 01:23:31;;;;;;;5.20;1.20;;;16.00;99.90;;;;;;5019352;28;20051;-76
2023/07/13 01:25:58;;;;;;;5.65;1.35;;;16.00;99.90;;;;;;5018357;28;20041;-76
2023/07/13 01:28:28;;;;;;;4.97;1.13;;;16.00;99.90;;;;;;5036983;28;20037;-76
2023/07/13 01:30:56;;;;;;;4.35;1.20;;;16.00;99.90;;;;;;5019109;28;20145;-76
2023/07/13 01:33:22;;;;;;;3.35;1.40;;;16.00;99.90;;;;;;5019566;28;20513;-76
2023/07/13 01:35:47;;;;;;;3.45;1.30;;;16.10;99.90;;;;;;5036388;28;20087;-76
2023/07/13 01:38:15;;;;;;;5.35;1.40;;;16.10;99.90;;;;;;5036048;28;20045;-76
2023/07/13 01:40:44;;;;;;;4.03;1.48;;;16.10;99.90;;;;;;5016957;28;20053;-76
2023/07/13 01:43:10;;;;;;;5.40;1.20;;;16.20;99.90;;;;;;5018360;28;20038;-76
2023/07/13 01:45:36;;;;;;;3.63;1.38;;;16.20;99.90;;;;;;5017400;28;20140;-76
2023/07/13 01:48:02;;;;;;;4.30;1.23;;;16.30;99.90;;;;;;5034644;28;20120;-76
2023/07/13 01:50:28;;;;;;;6.75;1.33;;;16.30;99.90;;;;;;5018525;28;20453;-76
2023/07/13 01:52:54;;;;;;;7.20;1.50;;;16.30;99.90;;;;;;5018137;28;20096;-76
2023/07/13 01:55:21;;;;;;;8.07;1.50;;;16.30;99.90;;;;;;5023717;28;20041;-76
2023/07/13 01:57:46;;;;;;;10.52;1.98;;;16.30;99.90;;;;;;5034524;28;20443;-76
2023/07/13 02:00:14;;;;;;;9.00;1.45;;;16.40;99.90;;;;;;5035830;28;20120;-76
2023/07/13 02:02:39;;;;;;;6.85;1.92;;;16.40;99.90;;;;;;5033212;28;20041;-76
2023/07/13 02:05:06;;;;;;;6.65;1.50;;;16.40;99.90;;;;;;5030233;28;20033;-76
2023/07/13 02:07:32;;;;;;;9.73;1.88;;;16.50;99.90;;;;;;5017170;28;20048;-76
2023/07/13 02:09:58;;;;;;;9.18;2.10;;;16.50;99.90;;;;;;5018892;28;20601;-76
2023/07/13 02:12:24;;;;;;;6.85;1.70;;;16.40;99.90;;;;;;5035824;28;20103;-76
2023/07/13 02:14:52;;;;;;;6.43;1.70;;;16.40;99.90;;;;;;5038555;28;20037;-76
2023/07/13 02:17:20;;;;;;;7.28;1.80;;;16.50;99.90;;;;;;5038462;28;20045;-76
2023/07/13 02:19:46;;;;;;;5.38;1.92;;;16.40;99.90;;;;;;5056023;28;20045;-76
2023/07/13 02:22:12;;;;;;;5.65;1.77;;;16.50;99.90;;;;;;5055960;28;20091;-76
2023/07/13 02:24:41;;;;;;;6.20;1.50;;;16.40;99.90;;;;;;5055653;28;20127;-76
2023/07/13 02:27:07;;;;;;;9.77;2.25;;;16.40;99.90;;;;;;5056703;28;20040;-76
2023/07/13 02:29:33;;;;;;;7.70;2.05;;;16.40;99.90;;;;;;5038129;28;20049;-76
2023/07/13 02:31:58;;;;;;;4.68;1.70;;;16.30;99.90;;;;;;5038613;28;20174;-76
2023/07/13 02:34:24;;;;;;;8.63;2.00;;;16.30;99.90;;;;;;5038410;28;20183;-76
2023/07/13 02:36:50;;;;;;;7.05;2.30;;;16.40;99.90;;;;;;5042647;28;20045;-76
2023/07/13 02:39:16;;;;;;;9.02;1.92;;;16.30;99.90;;;;;;5056276;28;20052;-76
2023/07/13 02:41:42;;;;;;;5.55;1.80;;;16.40;99.90;;;;;;5038260;28;20055;-76
2023/07/13 02:44:08;;;;;;;7.93;1.80;;;16.30;99.90;;;;;;5056457;28;20167;-76
2023/07/13 02:46:36;;;;;;;9.38;2.05;;;16.30;99.90;;;;;;5037949;28;20194;-76
2023/07/13 02:49:06;;;;;;;8.52;2.17;;;16.30;99.90;;;;;;5054806;28;20037;-75
2023/07/13 02:51:38;;;;;;;8.10;2.30;;;16.30;99.90;;;;;;5055070;28;20041;-76
2023/07/13 02:54:04;;;;;;;9.43;2.45;;;16.20;99.90;;;;;;5037841;28;20110;-75
2023/07/13 02:56:32;;;;;;;8.13;2.22;;;16.30;99.90;;;;;;5072445;28;20037;-76
2023/07/13 02:58:58;;;;;;;7.53;2.13;;;16.20;99.90;;;;;;5054803;28;20041;-76
2023/07/13 03:01:24;;;;;;;7.72;2.20;;;16.20;99.90;;;;;;5056452;28;20041;-76
2023/07/13 03:03:51;;;;;;;8.43;2.20;;;16.20;99.90;;;;;;5036629;28;20049;-75
2023/07/13 03:06:18;;;;;;;7.18;2.53;;;16.20;99.90;;;;;;5053531;28;20048;-76
2023/07/13 03:08:44;;;;;;;6.93;2.30;;;16.10;99.90;;;;;;5069049;28;20057;-76
2023/07/13 03:11:13;;;;;;;9.40;2.53;;;16.10;99.90;;;;;;5032895;28;20099;-76
2023/07/13 03:13:41;;;;;;;11.15;2.55;;;16.00;99.90;;;;;;5027982;28;20081;-76
2023/07/13 03:16:08;;;;;;;9.10;2.47;;;16.00;99.90;;;;;;5016747;28;20041;-76
2023/07/13 03:18:35;;;;;;;8.73;2.83;;;15.90;99.90;;;;;;5016001;28;20053;-76
2023/07/13 03:21:01;;;;;;;9.35;2.63;;;15.80;99.90;;;;;;5033266;28;20045;-76
2023/07/13 03:23:26;;;;;;;7.35;2.47;;;15.90;99.90;;;;;;5017630;28;20056;-76
2023/07/13 03:26:09;;;;;;;10.80;2.80;;;15.80;99.90;;;;;;5034460;28;20402;-76
2023/07/13 03:28:36;;;;;;;4.68;2.10;;;15.80;99.90;;;;;;5034342;28;20046;-76
2023/07/13 03:31:08;;;;;;;7.53;2.20;;;15.80;99.90;;;;;;5016838;28;20453;-76
2023/07/13 03:33:34;;;;;;;7.68;2.90;;;15.80;99.90;;;;;;5016273;28;20038;-76
2023/07/13 03:36:00;;;;;;;9.85;2.72;;;15.80;99.90;;;;;;5019108;28;20130;-75
2023/07/13 03:38:33;;;;;;;7.35;2.42;;;15.80;99.90;;;;;;5016921;28;20454;-76
2023/07/13 03:40:59;;;;;;;9.35;2.80;;;15.80;99.90;;;;;;5017334;28;20052;-76
2023/07/13 03:43:25;;;;;;;8.88;2.53;;;15.80;99.90;;;;;;5017948;28;20041;-76
2023/07/13 03:45:51;;;;;;;7.38;2.55;;;15.80;99.90;;;;;;5016270;28;20386;-76
2023/07/13 03:48:17;;;;;;;8.40;2.80;;;15.80;99.90;;;;;;5033631;28;20044;-76
2023/07/13 03:50:43;;;;;;;8.20;2.53;;;15.80;99.90;;;;;;5034187;28;20042;-76
2023/07/13 03:53:08;;;;;;;8.38;2.95;;;15.80;99.90;;;;;;5019343;28;20042;-76
2023/07/13 03:55:34;;;;;;;11.40;2.70;;;15.90;99.90;;;;;;5031870;28;20477;-76
2023/07/13 03:58:34;;;;;;;8.95;2.38;;;15.90;99.90;;;;;;5033323;28;20120;-76
2023/07/13 04:01:01;;;;;;;10.57;2.67;;;15.80;99.90;;;;;;5034194;28;20442;-76
2023/07/13 04:03:27;;;;;;;8.88;2.63;;;15.80;99.90;;;;;;5032919;28;20060;-75
2023/07/13 04:05:59;;;;;;;13.43;2.50;;;15.80;99.90;;;;;;5033206;28;20045;-76
2023/07/13 04:08:29;;;;;;;10.02;3.20;;;15.80;99.90;;;;;;5032991;28;20054;-76
2023/07/13 04:10:56;;;;;;;8.13;2.85;;;15.80;99.90;;;;;;5039100;28;20064;-76
2023/07/13 04:13:23;;;;;;;9.48;2.70;;;15.80;99.90;;;;;;5031744;28;20049;-76
2023/07/13 04:15:52;;;;;;;11.60;2.75;;;15.80;99.90;;;;;;5032360;28;20081;-76
2023/07/13 04:18:19;;;;;;;9.38;2.92;;;15.80;99.90;;;;;;5034180;28;20056;-76
2023/07/13 04:20:46;;;;;;;6.35;2.42;;;15.70;99.90;;;;;;5016472;28;20505;-76
2023/07/13 04:23:12;;;;;;;7.55;3.20;;;15.80;99.90;;;;;;5034460;28;20137;-76
2023/07/13 04:25:38;;;;;;;6.10;2.40;;;15.80;99.90;;;;;;5034641;28;20481;-77
2023/07/13 04:28:04;;;;;;;11.75;2.50;;;15.80;99.90;;;;;;5033744;28;20080;-76
2023/07/13 04:30:34;;;;;;;7.90;2.60;;;15.80;99.90;;;;;;5049218;28;20113;-76
2023/07/13 04:33:00;;;;;;;6.50;2.63;;;15.80;99.90;;;;;;5055031;28;20105;-76
2023/07/13 04:35:25;;;;;;;8.23;2.90;;;15.80;99.90;;;;;;5036479;28;20569;-76
2023/07/13 04:37:51;;;;;;;8.57;2.58;;;15.80;99.90;;;;;;5035403;28;20049;-76
2023/07/13 04:40:21;;;;;;;8.00;2.67;;;15.80;99.90;;;;;;5054053;28;20175;-76
2023/07/13 04:42:46;;;;;;;9.50;2.40;;;15.80;99.90;;;;;;5033992;28;20523;-76
2023/07/13 04:45:16;;;;;;;8.68;2.65;;;15.80;99.90;;;;;;5035050;28;20049;-76
2023/07/13 04:47:42;;;;;;;7.22;2.30;;;15.80;99.90;;;;;;5034389;28;20052;-76
2023/07/13 04:50:15;;;;;;;8.00;2.30;;;15.90;99.90;;;;;;5051176;28;20041;-76
2023/07/13 04:52:42;;;;;;;5.88;2.38;;;16.00;99.90;;;;;;5033906;28;20107;-76
2023/07/13 04:55:08;;;;;;;5.75;2.38;;;16.00;99.90;;;;;;5067890;28;20480;-77
2023/07/13 04:57:34;;;;;;;5.38;1.98;;;16.00;99.90;;;;;;5050785;28;20388;-76
2023/07/13 05:00:01;;;;;;;7.93;2.13;;;16.10;99.90;;;;;;5033817;28;20433;-76
2023/07/13 05:02:31;;;;;;;9.13;2.83;;;16.10;99.90;;;;;;5052117;28;20109;-74
2023/07/13 05:04:56;;;;;;;5.75;2.13;;;16.10;99.90;;;;;;5023019;28;20547;-77
2023/07/13 05:07:25;;;;;;;5.03;1.90;;;16.10;99.90;;;;;;5014346;28;20049;-77
2023/07/13 05:09:52;;;;;;;7.55;1.77;;;16.20;99.90;;;;;;5013837;28;20053;-78
2023/07/13 05:12:21;;;;;;;8.45;1.92;;;16.20;99.90;;;;;;5030710;28;20064;-77
2023/07/13 05:14:46;;;;;;;5.07;1.90;;;16.30;99.90;;;;;;5029484;28;20045;-78
2023/07/13 05:17:12;;;;;;;6.68;1.95;;;16.30;99.90;;;;;;5035041;28;20409;-77
2023/07/13 05:19:38;;;;;;;6.00;1.73;;;16.40;99.90;;;;;;5035225;28;20044;-75
2023/07/13 05:22:04;;;;;;;4.65;1.83;;;16.40;99.90;;;;;;5017566;28;20033;-77
2023/07/13 05:24:30;;;;;;;6.35;1.70;;;16.50;99.90;;;;;;5015641;28;20498;-76
2023/07/13 05:26:56;;;;;;;8.63;1.90;;;16.50;99.90;;;;;;4997136;28;20497;-85
2023/07/13 05:29:22;;;;;;;4.63;1.80;;;16.60;99.90;;;;;;4997820;28;20172;-76
2023/07/13 05:31:49;;;;;;;3.33;1.67;;;16.70;99.90;;;;;;5014912;28;20042;-74
2023/07/13 05:34:17;;;;;;;7.05;1.70;;;16.70;99.90;;;;;;5046269;28;20412;-74
2023/07/13 05:36:43;;;;;;;4.93;1.80;;;16.80;99.90;;;;;;5036503;28;20047;-74
2023/07/13 05:39:09;;;;;;;6.20;1.60;;;16.80;99.90;;;;;;5019370;28;20049;-74
2023/07/13 05:41:35;;;;;;;4.07;1.58;;;16.90;99.90;;;;;;5034799;28;20547;-75
2023/07/13 05:44:01;;;;;;;3.72;1.58;;;17.00;99.90;;;;;;5017547;28;20478;-81
2023/07/13 05:46:27;;;;;;;5.85;2.10;;;17.00;99.90;;;;;;5016101;28;20052;-73
2023/07/13 05:48:53;;;;;;;2.90;1.38;;;17.10;99.90;;;;;;5018102;28;20061;-76
2023/07/13 05:51:19;;;;;;;6.25;1.90;;;17.10;99.90;;;;;;5017000;28;20128;-78
2023/07/13 05:53:44;;;;;;;6.15;1.60;;;17.20;99.90;;;;;;5016181;28;20588;-78
2023/07/13 05:56:10;;;;;;;4.30;1.60;;;17.20;99.90;;;;;;5034815;28;20398;-77
2023/07/13 05:58:37;;;;;;;5.80;1.55;;;17.30;99.90;;;;;;5018880;28;20041;-76
2023/07/13 06:01:10;;;;;;;7.32;1.35;;;17.30;99.90;;;;;;5033805;28;20037;-75
2023/07/13 06:03:37;;;;;;;4.72;1.40;;;17.40;99.90;;;;;;5014633;28;20042;-74
2023/07/13 06:06:05;;;;;;;5.20;1.63;;;17.40;99.90;;;;;;5033433;28;20038;-78
2023/07/13 06:08:31;;;;;;;3.97;1.50;;;17.60;99.90;;;;;;5032287;28;20042;-73
2023/07/13 06:11:25;;;;;;;4.63;1.40;;;17.60;99.90;;;;;;5029721;28;20448;-75
2023/07/13 06:13:51;;;;;;;5.47;1.40;;;17.60;99.90;;;;;;5050720;28;20053;-75
2023/07/13 06:16:18;;;;;;;6.25;1.30;;;17.70;99.90;;;;;;5035566;28;20047;-75
2023/07/13 06:18:44;;;;;;;3.13;1.30;;;17.70;99.90;;;;;;5024180;28;20045;-75
2023/07/13 06:21:13;;;;;;;3.15;1.15;;;17.80;99.90;;;;;;5015855;28;20049;-75
2023/07/13 06:23:38;;;;;;;7.18;1.48;;;17.80;99.90;;;;;;5033028;28;20481;-75
2023/07/13 06:26:05;;;;;;;4.05;1.30;;;17.90;99.90;;;;;;5013827;28;20080;-75
2023/07/13 06:28:32;;;;;;;3.33;1.20;;;17.90;99.90;;;;;;5013743;28;20041;-72
2023/07/13 06:30:59;;;;;;;4.95;1.33;;;17.90;99.90;;;;;;5034155;28;20589;-73
2023/07/13 06:33:25;;;;;;;3.42;1.05;;;17.90;99.90;;;;;;5014995;28;20045;-73
2023/07/13 06:35:52;;;;;;;2.90;1.05;;;18.10;99.90;;;;;;5014552;28;20037;-74
2023/07/13 06:38:17;;;;;;;4.85;1.60;;;18.20;99.90;;;;;;5014126;28;20053;-74
2023/07/13 06:40:43;;;;;;;5.50;1.55;;;18.20;99.90;;;;;;5015255;28;20485;-72
2023/07/13 06:43:09;;;;;;;2.53;1.50;;;18.20;99.90;;;;;;5033261;28;20044;-72
2023/07/13 06:45:49;;;;;;;3.72;1.40;;;18.30;99.90;;;;;;5033430;28;20041;-72
2023/07/13 06:48:19;;;;;;;2.90;1.23;;;18.80;99.90;;;;;;5016059;28;20099;-71
2023/07/13 06:50:46;;;;;;;6.38;1.60;;;18.50;99.90;;;;;;5014013;28;20512;-71
2023/07/13 06:53:13;;;;;;;5.22;1.30;;;18.60;99.90;;;;;;5014468;28;20045;-71
2023/07/13 06:55:39;;;;;;;5.47;1.27;;;18.80;99.90;;;;;;5015532;28;20037;-71
2023/07/13 06:58:06;;;;;;;3.47;1.30;;;18.90;99.90;;;;;;5032828;28;20052;-72
2023/07/13 07:00:31;;;;;;;6.05;1.50;;;19.00;99.90;;;;;;5015094;28;20087;-74
2023/07/13 07:02:57;;;;;;;6.85;1.60;;;19.20;99.90;;;;;;5031820;28;20421;-73
2023/07/13 07:05:23;;;;;;;3.58;1.35;;;19.20;99.90;;;;;;5014592;28;20047;-72
2023/07/13 07:07:54;;;;;;;3.58;1.33;;;19.30;99.90;;;;;;5031822;28;20075;-71
2023/07/13 07:10:20;;;;;;;6.82;1.40;;;19.30;99.90;;;;;;5014249;28;20037;-72
2023/07/13 07:12:46;;;;;;;3.75;1.30;;;19.30;99.90;;;;;;5031492;28;20543;-74
2023/07/13 07:15:12;;;;;;;5.80;1.40;;;19.30;99.90;;;;;;5033257;28;20037;-74
2023/07/13 07:17:38;;;;;;;4.00;1.40;;;19.40;99.90;;;;;;5050050;28;20041;-73
2023/07/13 07:20:05;;;;;;;5.22;1.52;;;19.50;99.90;;;;;;5052146;28;20041;-73
2023/07/13 07:22:37;;;;;;;3.72;1.38;;;19.50;99.90;;;;;;5034071;28;20099;-73
2023/07/13 07:25:03;;;;;;;6.60;1.48;;;19.60;99.90;;;;;;5034151;28;20044;-73
2023/07/13 07:27:29;;;;;;;4.05;1.30;;;19.50;99.90;;;;;;5035043;28;20493;-73
2023/07/13 07:29:54;;;;;;;4.40;1.65;;;19.60;99.90;;;;;;5033491;28;20500;-72
2023/07/13 07:32:23;;;;;;;5.43;1.40;;;19.90;99.90;;;;;;5032049;28;20045;-72
2023/07/13 07:34:49;;;;;;;3.80;1.45;;;20.60;99.90;;;;;;5031863;28;20040;-72
2023/07/13 07:37:17;;;;;;;3.50;1.35;;;21.10;99.90;;;;;;5015411;28;20075;-76
2023/07/13 07:39:43;;;;;;;3.58;1.33;;;21.10;99.90;;;;;;5014384;28;20048;-74
2023/07/13 07:42:09;;;;;;;5.00;1.60;;;21.50;99.90;;;;;;5033050;28;20045;-73
2023/07/13 07:44:35;;;;;;;5.70;1.10;;;21.70;99.90;;;;;;5032766;28;20132;-75
2023/07/13 07:47:01;;;;;;;2.92;1.35;;;21.90;99.90;;;;;;5014178;28;20068;-75
2023/07/13 07:49:27;;;;;;;4.03;1.50;;;22.20;99.90;;;;;;5015606;28;20128;-74
2023/07/13 07:51:54;;;;;;;7.18;1.35;;;22.80;99.90;;;;;;5014634;28;20049;-74
2023/07/13 07:54:21;;;;;;;6.50;1.50;;;23.10;99.30;;;;;;5031728;28;20045;-74
2023/07/13 07:56:46;;;;;;;4.15;1.45;;;22.90;99.60;;;;;;5015008;28;20045;-74
2023/07/13 07:59:16;;;;;;;5.65;1.40;;;22.30;99.20;;;;;;5014902;28;20033;-73
2023/07/13 08:01:42;;;;;;;3.33;1.33;;;22.50;99.60;;;;;;5031142;28;20426;-74
2023/07/13 08:04:09;;;;;;;11.18;2.45;;;22.90;99.90;;;;;;5032165;28;20494;-73
2023/07/13 08:06:35;;;;;;;5.45;2.00;;;23.20;98.90;;;;;;5032848;28;20397;-74
2023/07/13 08:09:02;;;;;;;5.35;1.60;;;23.10;98.20;;;;;;5014151;28;20048;-73
2023/07/13 08:11:28;;;;;;;3.03;1.50;;;22.40;99.60;;;;;;5042594;28;20139;-75
2023/07/13 08:13:54;;;;;;;4.93;1.60;;;21.80;99.90;;;;;;5033582;28;20120;-73
2023/07/13 08:16:19;;;;;;;5.40;1.73;;;22.20;99.90;;;;;;5052549;28;20041;-73
2023/07/13 08:18:46;;;;;;;6.10;1.80;;;22.70;99.70;;;;;;5051799;28;20041;-71
2023/07/13 08:21:12;;;;;;;7.50;1.77;;;23.10;98.50;;;;;;5034459;28;20045;-72
2023/07/13 08:23:40;;;;;;;6.95;1.90;;;23.10;97.70;;;;;;5035324;28;20042;-73
2023/07/13 08:26:06;;;;;;;4.13;1.50;;;23.70;98.10;;;;;;5034414;28;20484;-73
2023/07/13 08:28:33;;;;;;;2.75;1.27;;;24.20;96.80;;;;;;5044760;28;20048;-72
2023/07/13 08:31:07;;;;;;;3.83;1.27;;;24.50;96.00;;;;;;5052751;28;20049;-72
2023/07/13 08:33:35;;;;;;;4.72;1.20;;;25.00;94.60;;;;;;5016763;28;20045;-73
2023/07/13 08:36:01;;;;;;;4.00;1.40;;;25.10;94.70;;;;;;5031858;28;20038;-72
2023/07/13 08:38:27;;;;;;;8.90;1.80;;;24.80;94.70;;;;;;5015289;28;20046;-73
2023/07/13 08:40:56;;;;;;;3.67;1.33;;;24.80;95.20;;;;;;5014777;28;20045;-73
2023/07/13 08:43:41;;;;;;;4.47;1.10;;;25.00;95.30;;;;;;5033876;28;20117;-73
2023/07/13 08:46:20;;;;;;;3.55;1.30;;;24.60;93.90;;;;;;5033997;28;20451;-72
2023/07/13 08:48:51;;;;;;;4.28;1.30;;;24.60;94.60;;;;;;5035659;28;20073;-73
2023/07/13 08:51:45;;;;;;;4.55;1.48;;;24.90;94.60;;;;;;5020436;28;20393;-73
2023/07/13 08:54:28;;;;;;;2.67;1.30;;;25.10;94.80;;;;;;5019504;28;20060;-73
2023/07/13 08:56:56;;;;;;;3.17;1.20;;;25.00;94.40;;;;;;5036427;28;20056;-73
2023/07/13 08:59:27;;;;;;;3.38;1.30;;;24.30;94.80;;;;;;5020571;28;20037;-73
2023/07/13 09:01:52;;;;;;;3.63;1.30;;;24.60;95.10;;;;;;5019166;28;20049;-72
2023/07/13 09:04:23;;;;;;;4.30;1.17;;;25.00;95.30;;;;;;5028169;28;20469;-72
2023/07/13 09:07:01;;;;;;;6.43;1.20;;;25.30;93.60;;;;;;5018356;28;20461;-72
2023/07/13 09:09:50;;;;;;;2.50;0.90;;;26.00;92.90;;;;;;5028047;28;20183;-75
2023/07/13 09:12:43;;;;;;;2.88;1.10;;;25.90;91.40;;;;;;5035181;28;20069;-75
2023/07/13 09:15:30;;;;;;;3.50;0.93;;;26.00;92.10;;;;;;5018898;28;20041;-74
2023/07/13 09:18:19;;;;;;;2.65;0.90;;;26.10;92.00;;;;;;5035045;28;20033;-74
2023/07/13 09:20:53;;;;;;;2.78;0.80;;;26.40;92.00;;;;;;5016867;28;20143;-75
2023/07/13 09:23:25;;;;;;;6.18;1.40;;;26.20;91.80;;;;;;5020202;28;20397;-72
2023/07/13 09:26:13;;;;;;;3.42;1.10;;;26.20;93.10;;;;;;5015980;28;20049;-72
2023/07/13 09:28:42;;;;;;;4.07;1.10;;;26.00;91.80;;;;;;5024557;28;20137;-72
2023/07/13 09:31:15;;;;;;;3.58;1.20;;;26.00;92.90;;;;;;5030729;28;20513;-72
2023/07/13 09:33:42;;;;;;;5.97;1.33;;;26.00;91.60;;;;;;5034417;28;20114;-73
2023/07/13 09:36:30;;;;;;;3.10;1.23;;;25.80;91.80;;;;;;5034290;28;20038;-72
2023/07/13 09:39:07;;;;;;;2.75;0.88;;;25.30;91.80;;;;;;5033133;28;20084;-72
2023/07/13 09:41:50;;;;;;;2.83;1.00;;;25.40;92.70;;;;;;5034545;28;20041;-72
2023/07/13 09:44:19;;;;;;;3.95;1.20;;;25.50;92.50;;;;;;5035205;28;20412;-74
2023/07/13 09:46:52;;;;;;;3.30;1.05;;;25.40;92.40;;;;;;5016391;28;20064;-72
2023/07/13 09:49:18;;;;;;;5.32;1.30;;;25.50;91.70;;;;;;5035418;28;20037;-71
2023/07/13 09:51:44;;;;;;;3.53;1.15;;;25.20;92.90;;;;;;5017068;28;20455;-73
2023/07/13 09:54:21;;;;;;;3.55;1.25;;;24.90;93.50;;;;;;5035433;28;20091;-73
2023/07/13 09:56:47;;;;;;;2.70;1.10;;;25.20;93.00;;;;;;5016611;28;20423;-71
2023/07/13 09:59:24;;;;;;;3.80;1.15;;;25.40;92.60;;;;;;5035593;28;20041;-72
2023/07/13 10:01:50;;;;;;;4.63;1.50;;;25.60;92.90;;;;;;5017344;28;20046;-72
2023/07/13 10:04:22;;;;;;;5.72;1.42;;;25.00;93.20;;;;;;5016476;28;20108;-72
2023/07/13 10:07:05;;;;;;;6.15;1.88;;;24.50;94.10;;;;;;5032783;28;20434;-72
2023/07/13 10:09:32;;;;;;;6.57;1.63;;;23.70;94.70;;;;;;5033828;28;20042;-72
2023/07/13 10:11:58;;;;;;;4.90;1.58;;;23.30;95.70;;;;;;5032932;28;20099;-72
2023/07/13 10:14:25;;;;;;;9.60;2.28;;;23.10;95.90;;;;;;5016366;28;20045;-73
2023/07/13 10:16:56;;;;;;;5.20;1.77;;;22.60;96.00;;;;;;5042164;28;20037;-73
2023/07/13 10:19:26;;;;;;;4.95;1.58;;;22.40;96.10;;;;;;5021015;28;20069;-74
2023/07/13 10:22:03;;;;;;;4.93;1.75;;;22.50;96.50;;;;;;5015867;28;20110;-75
2023/07/13 10:24:37;;;;;;;4.13;1.40;;;22.70;97.20;;;;;;5037288;28;20045;-72
2023/07/13 10:27:40;;;;;;;4.47;1.50;;;22.60;96.30;;;;;;5017831;28;20493;-74
2023/07/13 10:30:13;;;;;;;2.90;1.33;;;22.40;95.60;;;;;;4934323;29;20058;-73
2023/07/13 10:32:39;;;;;;;3.60;1.35;;;22.90;96.50;;;;;;5003759;28;20062;-73
2023/07/13 10:35:11;;;;;;;4.20;1.20;;;23.90;95.40;;;;;;5013649;28;20110;-73
2023/07/13 10:38:10;;;;;;;5.10;1.60;;;23.70;93.60;;;;;;5010440;28;20053;-75
2023/07/13 10:40:49;;;;;;;3.88;1.30;;;24.00;93.70;;;;;;5014485;28;20057;-71
2023/07/13 10:43:39;;;;;;;4.75;1.48;;;24.10;93.90;;;;;;5015124;28;20053;-71
2023/07/13 10:46:12;;;;;;;5.32;1.38;;;23.70;94.40;;;;;;5020132;28;20103;-73
2023/07/13 10:48:41;;;;;;;5.68;1.80;;;24.00;94.20;;;;;;5015579;28;20081;-73
2023/07/13 10:51:10;;;;;;;4.85;1.77;;;24.40;94.40;;;;;;5031940;28;20045;-74
2023/07/13 10:53:39;;;;;;;5.55;1.92;;;24.30;94.10;;;;;;5016033;28;20443;-74
2023/07/13 10:56:11;;;;;;;5.57;1.60;;;23.80;94.30;;;;;;5028484;28;20053;-73
2023/07/13 10:58:41;;;;;;;4.80;1.92;;;23.90;94.80;;;;;;5026454;28;20115;-73
2023/07/13 11:01:26;;;;;;;4.72;1.95;;;23.80;95.00;;;;;;5042062;28;20128;-72
2023/07/13 11:04:12;;;;;;;5.93;1.90;;;23.70;95.30;;;;;;5015525;28;20156;-73
2023/07/13 11:06:41;;;;;;;6.65;1.88;;;23.70;94.90;;;;;;5015533;28;20045;-72
2023/07/13 11:09:36;;;;;;;4.10;1.40;;;24.00;94.50;;;;;;5024986;28;20047;-72
2023/07/13 11:12:09;;;;;;;4.72;1.45;;;24.10;93.80;;;;;;5048492;28;20387;-72
2023/07/13 11:14:38;;;;;;;3.78;1.60;;;24.50;93.20;;;;;;5033611;28;20041;-72
2023/07/13 11:17:29;;;;;;;4.85;1.60;;;24.50;93.80;;;;;;5030515;28;20709;-72
2023/07/13 11:20:12;;;;;;;3.72;1.40;;;24.20;93.60;;;;;;4995870;28;21377;-72
2023/07/13 11:22:51;;;;;;;4.55;1.75;;;24.00;92.90;;;;;;5029229;28;20563;-73
2023/07/13 11:25:27;;;;;;;4.78;1.65;;;23.90;94.20;;;;;;5013086;28;20060;-73
2023/07/13 11:28:14;;;;;;;5.60;1.70;;;23.80;95.30;;;;;;5014196;28;20413;-73
2023/07/13 11:30:50;;;;;;;5.60;1.85;;;23.70;94.80;;;;;;5013790;28;20041;-73
2023/07/13 11:33:39;;;;;;;7.43;1.90;;;23.40;95.30;;;;;;5014935;28;20126;-73
2023/07/13 11:36:12;;;;;;;6.35;1.85;;;22.90;95.50;;;;;;5014803;28;20437;-71
2023/07/13 11:38:41;;;;;;;6.57;1.95;;;22.50;96.70;;;;;;5032305;28;20041;-72
2023/07/13 11:41:22;;;;;;;5.40;1.80;;;22.40;96.00;;;;;;5030415;28;20521;-72
2023/07/13 11:43:54;;;;;;;5.75;1.52;;;22.20;95.70;;;;;;5012779;28;20048;-72
2023/07/13 11:46:23;;;;;;;3.72;1.50;;;22.00;96.30;;;;;;5012226;28;20048;-72
2023/07/13 11:48:50;;;;;;;6.05;1.95;;;22.10;96.50;;;;;;5030938;28;20045;-73
2023/07/13 11:51:30;;;;;;;6.03;2.10;;;22.10;97.30;;;;;;5013545;28;20156;-73
2023/07/13 11:54:01;;;;;;;7.03;2.05;;;22.00;97.80;;;;;;5030315;28;20037;-71
2023/07/13 11:56:27;;;;;;;5.63;2.15;;;21.80;97.60;;;;;;5032076;28;20433;-72
2023/07/13 11:58:55;;;;;;;7.25;2.17;;;21.60;97.90;;;;;;5014015;28;20072;-73
2023/07/13 12:01:25;;;;;;;5.95;2.22;;;21.50;98.30;;;;;;5032513;28;20087;-73
2023/07/13 12:03:53;;;;;;;5.40;2.30;;;21.70;98.00;;;;;;5014767;28;20164;-73
2023/07/13 12:06:31;;;;;;;5.65;1.70;;;21.70;97.90;;;;;;5013644;28;20132;-73
2023/07/13 12:08:59;;;;;;;6.22;2.30;;;21.70;97.80;;;;;;5015028;28;20073;-73
2023/07/13 12:11:26;;;;;;;5.03;2.10;;;21.50;97.90;;;;;;5039936;28;20122;-73
2023/07/13 12:13:51;;;;;;;7.00;2.30;;;21.20;98.60;;;;;;5016701;28;20053;-75
2023/07/13 12:16:30;;;;;;;4.97;1.95;;;21.30;99.10;;;;;;5014532;28;20053;-73
2023/07/13 12:18:57;;;;;;;7.43;2.08;;;21.60;98.80;;;;;;5014809;28;20124;-73
2023/07/13 12:21:34;;;;;;;5.50;2.00;;;22.10;98.00;;;;;;5031717;28;20052;-73
2023/07/13 12:24:03;;;;;;;6.32;1.85;;;22.40;97.10;;;;;;5017513;28;20057;-72
2023/07/13 12:26:31;;;;;;;6.78;2.10;;;22.50;97.90;;;;;;5018789;28;20413;-73
2023/07/13 12:29:00;;;;;;;6.63;2.10;;;22.40;97.40;;;;;;5014775;28;20509;-72
2023/07/13 12:31:32;;;;;;;5.15;1.95;;;22.20;98.10;;;;;;5031971;28;20042;-71
2023/07/13 12:34:24;;;;;;;6.80;2.10;;;22.10;98.50;;;;;;5018362;28;20087;-74
2023/07/13 12:36:51;;;;;;;5.57;1.92;;;22.30;98.50;;;;;;5023507;28;20049;-73
2023/07/13 12:39:19;;;;;;;6.45;2.17;;;22.70;97.30;;;;;;5036323;28;20494;-73
2023/07/13 12:41:47;;;;;;;5.40;2.20;;;23.10;97.90;;;;;;5017396;28;20079;-71
2023/07/13 12:44:18;;;;;;;8.15;2.17;;;23.20;97.60;;;;;;5035800;28;20056;-71
2023/07/13 12:46:56;;;;;;;6.85;1.85;;;23.40;96.70;;;;;;5016638;28;20469;-72
2023/07/13 12:49:59;;;;;;;6.65;1.98;;;23.50;96.40;;;;;;5023993;28;20114;-71
2023/07/13 12:52:34;;;;;;;8.43;2.22;;;23.60;96.30;;;;;;5036192;28;20136;-71
2023/07/13 12:55:14;;;;;;;6.45;2.00;;;23.50;95.40;;;;;;5055266;28;20452;-73
2023/07/13 12:57:44;;;;;;;3.83;1.90;;;23.30;96.20;;;;;;5037847;28;20163;-72
2023/07/13 13:00:35;;;;;;;4.50;1.95;;;23.30;96.80;;;;;;5054526;28;20558;-73